Time,TemperatureF,DewpointF,PressureIn,WindDirection,WindDirectionDegrees,WindSpeedMPH,WindSpeedGustMPH,Humidity,HourlyPrecipIn,Conditions,Clouds,dailyrainin,SoftwareType,DateUTC
2013-06-03 00:02:00,41.9,34.9,29.67,NW,310,4.0,4.0,76,0.00,,---,0.00,VWS V14.01,2013-06-03 06:02:00,
2013-06-03 00:07:00,41.9,34.9,29.67,WSW,247,5.8,7.6,76,0.00,,---,0.00,VWS V14.01,2013-06-03 06:07:00,
2013-06-03 00:12:00,42.1,35.1,29.67,West,281,2.7,5.4,76,0.00,,---,0.00,VWS V14.01,2013-06-03 06:12:00,
2013-06-03 00:16:00,42.1,34.7,29.67,WSW,246,2.7,2.7,75,0.00,,---,0.00,VWS V14.01,2013-06-03 06:16:00,
2013-06-03 00:21:00,42.3,35.2,29.70,SW,223,0.0,0.0,76,0.00,,---,0.00,VWS V14.01,2013-06-03 06:21:00,
2013-06-03 00:26:00,42.3,35.2,29.70,SW,223,0.0,0.0,76,0.00,,---,0.00,VWS V14.01,2013-06-03 06:26:00,
2013-06-03 00:32:00,42.4,35.1,29.70,SW,223,0.0,0.0,75,0.00,,---,0.00,VWS V14.01,2013-06-03 06:32:00,
2013-06-03 00:37:00,42.4,35.1,29.67,SW,223,0.0,0.0,75,0.00,,---,0.00,VWS V14.01,2013-06-03 06:37:00,
2013-06-03 00:42:00,42.3,34.9,29.67,SW,223,0.0,0.0,75,0.00,,---,0.00,VWS V14.01,2013-06-03 06:42:00,
2013-06-03 00:47:00,42.1,34.4,29.67,SW,227,0.0,0.0,74,0.00,,---,0.00,VWS V14.01,2013-06-03 06:47:00,
2013-06-03 00:52:00,41.9,34.2,29.67,SW,227,0.0,0.0,74,0.00,,---,0.00,VWS V14.01,2013-06-03 06:52:00,
2013-06-03 00:57:00,41.5,34.2,29.67,SW,227,0.0,0.0,75,0.00,,---,0.00,VWS V14.01,2013-06-03 06:57:00,
2013-06-03 01:02:00,41.4,34.0,29.67,SSE,150,0.0,0.0,75,0.00,,---,0.00,VWS V14.01,2013-06-03 07:02:00,
2013-06-03 01:07:00,41.7,34.4,29.67,SSW,192,0.0,0.0,75,0.00,,---,0.00,VWS V14.01,2013-06-03 07:07:00,
2013-06-03 01:12:00,41.7,34.1,29.67,SSE,166,0.0,0.0,74,0.00,,---,0.00,VWS V14.01,2013-06-03 07:12:00,
2013-06-03 01:17:00,41.5,33.9,29.67,SSW,196,4.9,5.8,74,0.00,,---,0.00,VWS V14.01,2013-06-03 07:17:00,
2013-06-03 01:22:00,41.7,33.7,29.67,SSW,197,0.0,0.0,73,0.00,,---,0.00,VWS V14.01,2013-06-03 07:22:00,
2013-06-03 01:27:00,41.9,33.9,29.67,West,274,0.0,0.0,73,0.00,,---,0.00,VWS V14.01,2013-06-03 07:27:00,
2013-06-03 01:32:00,41.7,33.7,29.67,West,274,0.0,0.0,73,0.00,,---,0.00,VWS V14.01,2013-06-03 07:32:00,
2013-06-03 01:37:00,41.5,33.5,29.67,South,175,0.0,0.0,73,0.00,,---,0.00,VWS V14.01,2013-06-03 07:37:00,
2013-06-03 01:42:00,41.2,33.2,29.67,South,175,0.0,0.0,73,0.00,,---,0.00,VWS V14.01,2013-06-03 07:42:00,
2013-06-03 01:47:00,40.8,33.5,29.67,South,177,0.0,0.0,75,0.00,,---,0.00,VWS V14.01,2013-06-03 07:47:00,
2013-06-03 01:52:00,40.8,33.5,29.67,South,181,0.0,0.0,75,0.00,,---,0.00,VWS V14.01,2013-06-03 07:52:00,
2013-06-03 01:57:00,40.8,33.8,29.67,South,181,0.0,0.0,76,0.00,,---,0.00,VWS V14.01,2013-06-03 07:57:00,
2013-06-03 02:02:00,40.6,33.7,29.67,ENE,73,2.2,3.6,76,0.00,,---,0.00,VWS V14.01,2013-06-03 08:02:00,
2013-06-03 02:07:00,40.5,33.5,29.67,ENE,70,0.0,0.0,76,0.00,,---,0.00,VWS V14.01,2013-06-03 08:07:00,
2013-06-03 02:12:00,40.1,33.5,29.67,ENE,70,0.0,0.0,77,0.00,,---,0.00,VWS V14.01,2013-06-03 08:12:00,
2013-06-03 02:17:00,40.3,34.0,29.67,WNW,293,2.2,3.6,78,0.00,,---,0.00,VWS V14.01,2013-06-03 08:17:00,
2013-06-03 02:22:00,41.0,34.3,29.67,West,264,0.0,0.0,77,0.00,,---,0.00,VWS V14.01,2013-06-03 08:22:00,
2013-06-03 02:27:00,40.8,34.2,29.67,West,264,0.0,0.0,77,0.00,,---,0.00,VWS V14.01,2013-06-03 08:27:00,
2013-06-03 02:32:00,41.0,34.3,29.67,WSW,243,2.2,3.1,77,0.00,,---,0.00,VWS V14.01,2013-06-03 08:32:00,
2013-06-03 02:37:00,41.0,34.0,29.67,SW,235,0.0,3.1,76,0.00,,---,0.00,VWS V14.01,2013-06-03 08:37:00,
2013-06-03 02:42:00,41.0,34.0,29.67,SW,235,0.0,0.0,76,0.00,,---,0.00,VWS V14.01,2013-06-03 08:42:00,
2013-06-03 02:47:00,40.8,33.8,29.67,SW,235,0.0,0.0,76,0.00,,---,0.00,VWS V14.01,2013-06-03 08:47:00,
2013-06-03 02:52:00,40.6,33.7,29.67,SW,234,2.2,2.2,76,0.00,,---,0.00,VWS V14.01,2013-06-03 08:52:00,
2013-06-03 02:57:00,40.6,34.0,29.67,WSW,258,3.1,4.5,77,0.00,,---,0.00,VWS V14.01,2013-06-03 08:57:00,
2013-06-03 03:02:00,41.0,34.3,29.67,WNW,293,0.0,2.7,77,0.00,,---,0.00,VWS V14.01,2013-06-03 09:02:00,
2013-06-03 03:07:00,41.2,34.5,29.67,WNW,297,0.0,3.1,77,0.00,,---,0.00,VWS V14.01,2013-06-03 09:07:00,
2013-06-03 03:12:00,41.4,34.7,29.67,WNW,297,0.0,0.0,77,0.00,,---,0.00,VWS V14.01,2013-06-03 09:12:00,
2013-06-03 03:17:00,41.5,34.5,29.67,NW,306,0.0,0.0,76,0.00,,---,0.00,VWS V14.01,2013-06-03 09:17:00,
2013-06-03 03:22:00,41.5,34.5,29.67,SSW,205,0.0,3.1,76,0.00,,---,0.00,VWS V14.01,2013-06-03 09:22:00,
2013-06-03 03:27:00,41.5,34.5,29.67,WNW,284,2.2,3.1,76,0.00,,---,0.00,VWS V14.01,2013-06-03 09:27:00,
2013-06-03 03:32:00,41.7,34.7,29.67,NW,308,2.2,3.6,76,0.00,,---,0.00,VWS V14.01,2013-06-03 09:32:00,
2013-06-03 03:37:00,41.9,34.9,29.67,West,267,0.0,0.0,76,0.00,,---,0.00,VWS V14.01,2013-06-03 09:37:00,
2013-06-03 03:42:00,42.1,34.7,29.67,WNW,293,0.0,0.0,75,0.00,,---,0.00,VWS V14.01,2013-06-03 09:42:00,
2013-06-03 03:47:00,42.3,34.9,29.67,WSW,254,3.1,3.1,75,0.00,,---,0.00,VWS V14.01,2013-06-03 09:47:00,
2013-06-03 03:52:00,42.4,35.1,29.67,WNW,294,0.0,3.6,75,0.00,,---,0.00,VWS V14.01,2013-06-03 09:52:00,
2013-06-03 03:57:00,42.6,34.9,29.67,WSW,244,2.7,3.1,74,0.00,,---,0.00,VWS V14.01,2013-06-03 09:57:00,
2013-06-03 04:02:00,42.8,34.8,29.67,West,280,3.6,4.9,73,0.00,,---,0.00,VWS V14.01,2013-06-03 10:02:00,
2013-06-03 04:07:00,42.8,34.4,29.67,NW,310,3.6,5.8,72,0.00,,---,0.00,VWS V14.01,2013-06-03 10:07:00,
2013-06-03 04:12:00,43.2,34.4,29.67,WNW,294,2.7,3.6,71,0.00,,---,0.00,VWS V14.01,2013-06-03 10:12:00,
2013-06-03 04:17:00,43.3,34.2,29.67,West,275,3.6,3.6,70,0.00,,---,0.00,VWS V14.01,2013-06-03 10:17:00,
2013-06-03 04:22:00,43.5,34.0,29.67,West,280,2.7,5.8,69,0.00,,---,0.00,VWS V14.01,2013-06-03 10:22:00,
2013-06-03 04:27:00,43.5,34.0,29.67,NW,315,3.6,4.0,69,0.00,,---,0.00,VWS V14.01,2013-06-03 10:27:00,
2013-06-03 04:32:00,43.3,34.2,29.67,West,267,3.6,5.8,70,0.00,,---,0.00,VWS V14.01,2013-06-03 10:32:00,
2013-06-03 04:37:00,43.3,34.2,29.67,SW,233,8.7,8.7,70,0.00,,---,0.00,VWS V14.01,2013-06-03 10:37:00,
2013-06-03 04:42:00,43.0,34.2,29.67,WNW,291,4.0,6.7,71,0.00,,---,0.00,VWS V14.01,2013-06-03 10:42:00,
2013-06-03 04:46:00,42.4,34.4,29.67,West,259,3.1,5.8,73,0.00,,---,0.00,VWS V14.01,2013-06-03 10:46:00,
2013-06-03 04:51:00,42.3,34.9,29.67,NW,320,4.9,7.6,75,0.00,,---,0.00,VWS V14.01,2013-06-03 10:51:00,
2013-06-03 04:57:00,42.1,34.7,29.67,West,279,4.9,9.6,75,0.00,,---,0.00,VWS V14.01,2013-06-03 10:57:00,
2013-06-03 05:02:00,41.9,34.9,29.67,West,272,4.0,8.1,76,0.00,,---,0.00,VWS V14.01,2013-06-03 11:02:00,
2013-06-03 05:07:00,41.5,34.9,29.67,West,265,3.6,6.7,77,0.00,,---,0.00,VWS V14.01,2013-06-03 11:07:00,
2013-06-03 05:12:00,41.2,34.8,29.67,West,267,6.3,6.3,78,0.00,,---,0.00,VWS V14.01,2013-06-03 11:12:00,
2013-06-03 05:17:00,41.0,34.7,29.67,West,275,8.1,9.2,78,0.00,,---,0.00,VWS V14.01,2013-06-03 11:17:00,
2013-06-03 05:22:00,40.8,35.1,29.67,West,272,5.4,5.4,80,0.00,,---,0.00,VWS V14.01,2013-06-03 11:22:00,
2013-06-03 05:27:00,40.8,35.5,29.67,WSW,254,5.8,7.6,81,0.00,,---,0.00,VWS V14.01,2013-06-03 11:27:00,
2013-06-03 05:32:00,40.8,35.5,29.67,West,265,3.1,4.9,81,0.00,,---,0.00,VWS V14.01,2013-06-03 11:32:00,
2013-06-03 05:37:00,40.8,35.5,29.67,West,269,4.0,5.8,81,0.00,,---,0.00,VWS V14.01,2013-06-03 11:37:00,
2013-06-03 05:42:00,41.0,35.6,29.67,West,277,5.8,5.8,81,0.00,,---,0.00,VWS V14.01,2013-06-03 11:42:00,
2013-06-03 05:47:00,41.2,35.8,29.67,WNW,283,3.1,3.6,81,0.00,,---,0.00,VWS V14.01,2013-06-03 11:47:00,
2013-06-03 05:52:00,41.2,35.8,29.67,WNW,289,5.8,5.8,81,0.00,,---,0.00,VWS V14.01,2013-06-03 11:52:00,
2013-06-03 05:57:00,41.4,35.7,29.67,West,268,2.7,2.7,80,0.00,,---,0.00,VWS V14.01,2013-06-03 11:57:00,
2013-06-03 06:02:00,41.4,35.3,29.67,West,278,2.2,2.7,79,0.00,,---,0.00,VWS V14.01,2013-06-03 12:02:00,
2013-06-03 06:07:00,41.7,35.7,29.67,NW,305,4.9,5.8,79,0.00,,---,0.00,VWS V14.01,2013-06-03 12:07:00,
2013-06-03 06:12:00,41.9,35.2,29.67,NW,314,4.0,4.0,77,0.00,,---,0.00,VWS V14.01,2013-06-03 12:12:00,
2013-06-03 06:17:00,42.3,35.2,29.67,West,273,5.4,6.3,76,0.00,,---,0.00,VWS V14.01,2013-06-03 12:17:00,
2013-06-03 06:22:00,42.4,34.8,29.67,NW,315,3.6,3.6,74,0.00,,---,0.00,VWS V14.01,2013-06-03 12:22:00,
2013-06-03 06:27:00,42.8,34.4,29.67,WNW,288,6.3,6.3,72,0.00,,---,0.00,VWS V14.01,2013-06-03 12:27:00,
2013-06-03 06:32:00,43.0,34.2,29.67,West,266,4.0,5.4,71,0.00,,---,0.00,VWS V14.01,2013-06-03 12:32:00,
2013-06-03 06:37:00,43.0,34.2,29.67,West,264,6.3,6.3,71,0.00,,---,0.00,VWS V14.01,2013-06-03 12:37:00,
2013-06-03 06:42:00,43.0,34.6,29.67,NW,317,2.7,2.7,72,0.00,,---,0.00,VWS V14.01,2013-06-03 12:42:00,
2013-06-03 06:47:00,43.0,34.6,29.67,WNW,293,4.9,4.9,72,0.00,,---,0.00,VWS V14.01,2013-06-03 12:47:00,
2013-06-03 06:52:00,43.2,34.8,29.70,WNW,292,3.1,5.4,72,0.00,,---,0.00,VWS V14.01,2013-06-03 12:52:00,
2013-06-03 08:12:00,44.1,36.3,29.70,NW,309,4.0,7.6,74,0.00,,---,0.00,VWS V14.01,2013-06-03 14:12:00,
2013-06-03 08:17:00,44.2,36.8,29.70,West,281,5.8,5.8,75,0.00,,---,0.00,VWS V14.01,2013-06-03 14:17:00,
2013-06-03 08:22:00,44.8,37.0,29.70,WNW,292,6.3,8.1,74,0.00,,---,0.00,VWS V14.01,2013-06-03 14:22:00,
2013-06-03 08:27:00,45.3,36.8,29.70,NW,307,5.8,8.7,72,0.00,,---,0.00,VWS V14.01,2013-06-03 14:27:00,
2013-06-03 08:32:00,45.7,36.5,29.70,WNW,294,8.1,8.1,70,0.00,,---,0.00,VWS V14.01,2013-06-03 14:32:00,
2013-06-03 08:37:00,46.4,36.0,29.70,WNW,303,4.9,7.6,67,0.00,,---,0.00,VWS V14.01,2013-06-03 14:37:00,
2013-06-03 08:42:00,46.6,34.7,29.70,WNW,285,7.6,7.6,63,0.00,,---,0.00,VWS V14.01,2013-06-03 14:42:00,
2013-06-03 08:47:00,46.8,34.8,29.70,WNW,302,15.0,15.0,63,0.00,,---,0.00,VWS V14.01,2013-06-03 14:47:00,
2013-06-03 08:52:00,46.8,35.2,29.67,WNW,301,8.7,8.7,64,0.00,,---,0.00,VWS V14.01,2013-06-03 14:52:00,
2013-06-03 08:57:00,46.9,35.8,29.67,NW,306,11.0,11.0,65,0.00,,---,0.00,VWS V14.01,2013-06-03 14:57:00,
2013-06-03 09:02:00,47.3,35.4,29.67,WSW,251,12.8,12.8,63,0.00,,---,0.00,VWS V14.01,2013-06-03 15:02:00,
2013-06-03 09:07:00,47.8,34.6,29.70,West,272,8.3,8.3,60,0.00,,---,0.00,VWS V14.01,2013-06-03 15:07:00,
2013-06-03 09:12:00,48.0,34.0,29.70,West,275,7.6,10.1,58,0.00,,---,0.00,VWS V14.01,2013-06-03 15:12:00,
2013-06-03 09:17:00,48.0,32.6,29.70,WSW,255,6.7,9.2,55,0.00,,---,0.00,VWS V14.01,2013-06-03 15:17:00,
2013-06-03 09:22:00,47.8,32.0,29.70,NW,321,9.2,9.2,54,0.00,,---,0.00,VWS V14.01,2013-06-03 15:22:00,
2013-06-03 09:27:00,47.7,33.2,29.70,NW,306,5.8,12.8,57,0.00,,---,0.00,VWS V14.01,2013-06-03 15:27:00,
2013-06-03 09:32:00,47.7,33.6,29.70,WNW,299,5.4,5.4,58,0.00,,---,0.00,VWS V14.01,2013-06-03 15:32:00,
2013-06-03 09:37:00,47.5,33.9,29.70,NW,306,4.9,4.9,59,0.00,,---,0.00,VWS V14.01,2013-06-03 15:37:00,
2013-06-03 09:42:00,47.5,34.3,29.70,NNW,333,5.8,8.7,60,0.00,,---,0.00,VWS V14.01,2013-06-03 15:42:00,
2013-06-03 09:47:00,47.3,34.1,29.70,West,277,5.4,5.4,60,0.00,,---,0.00,VWS V14.01,2013-06-03 15:47:00,
2013-06-03 09:52:00,47.3,35.0,29.70,West,266,6.3,6.3,62,0.00,,---,0.00,VWS V14.01,2013-06-03 15:52:00,
2013-06-03 09:57:00,47.3,35.8,29.70,NW,305,4.9,4.9,64,0.00,,---,0.00,VWS V14.01,2013-06-03 15:57:00,
2013-06-03 10:02:00,47.3,35.8,29.70,WNW,300,5.8,6.3,64,0.00,,---,0.00,VWS V14.01,2013-06-03 16:02:00,
2013-06-03 10:07:00,47.5,35.1,29.70,NW,309,5.8,7.6,62,0.00,,---,0.00,VWS V14.01,2013-06-03 16:07:00,
2013-06-03 10:12:00,47.5,35.9,29.70,West,281,5.8,5.8,64,0.00,,---,0.00,VWS V14.01,2013-06-03 16:12:00,
2013-06-03 10:17:00,47.7,34.5,29.70,NW,321,10.1,10.1,60,0.00,,---,0.00,VWS V14.01,2013-06-03 16:17:00,
2013-06-03 10:22:00,48.0,34.8,29.70,NW,312,6.3,12.3,60,0.00,,---,0.00,VWS V14.01,2013-06-03 16:22:00,
2013-06-03 10:27:00,48.6,34.0,29.70,WNW,290,5.8,8.1,57,0.00,,---,0.00,VWS V14.01,2013-06-03 16:27:00,
2013-06-03 10:32:00,48.7,33.3,29.70,West,263,7.6,7.6,55,0.00,,---,0.00,VWS V14.01,2013-06-03 16:32:00,
2013-06-03 10:37:00,48.9,33.5,29.70,WNW,296,7.6,7.6,55,0.00,,---,0.00,VWS V14.01,2013-06-03 16:37:00,
2013-06-03 10:42:00,48.9,33.5,29.70,West,277,8.7,8.7,55,0.00,,---,0.00,VWS V14.01,2013-06-03 16:42:00,
2013-06-03 10:47:00,49.3,33.4,29.70,West,277,8.1,8.7,54,0.00,,---,0.00,VWS V14.01,2013-06-03 16:47:00,
2013-06-03 10:52:00,49.5,34.0,29.73,NW,308,9.6,9.6,55,0.00,,---,0.00,VWS V14.01,2013-06-03 16:52:00,
2013-06-03 10:57:00,49.3,34.3,29.73,WNW,291,11.9,11.9,56,0.00,,---,0.00,VWS V14.01,2013-06-03 16:57:00,
2013-06-03 11:02:00,48.9,34.4,29.73,WNW,282,7.6,7.6,57,0.00,,---,0.00,VWS V14.01,2013-06-03 17:02:00,
2013-06-03 11:07:00,48.7,34.6,29.73,WSW,245,10.1,10.1,58,0.00,,---,0.00,VWS V14.01,2013-06-03 17:07:00,
2013-06-03 11:12:00,49.1,34.5,29.73,SW,226,10.1,10.1,57,0.00,,---,0.00,VWS V14.01,2013-06-03 17:12:00,
2013-06-03 11:17:00,50.0,34.9,29.73,WSW,250,6.3,6.3,56,0.00,,---,0.00,VWS V14.01,2013-06-03 17:17:00,
2013-06-03 11:22:00,50.7,33.8,29.73,SSW,205,3.6,3.6,52,0.00,,---,0.00,VWS V14.01,2013-06-03 17:22:00,
2013-06-03 11:27:00,51.3,34.2,29.73,SW,223,5.8,5.8,52,0.00,,---,0.00,VWS V14.01,2013-06-03 17:27:00,
2013-06-03 11:32:00,51.4,33.4,29.73,WNW,293,5.8,6.3,50,0.00,,---,0.00,VWS V14.01,2013-06-03 17:32:00,
2013-06-03 11:37:00,51.4,32.9,29.70,WSW,240,8.3,8.7,49,0.00,,---,0.00,VWS V14.01,2013-06-03 17:37:00,
2013-06-03 11:42:00,52.0,33.9,29.70,SW,224,5.4,10.1,50,0.00,,---,0.00,VWS V14.01,2013-06-03 17:42:00,
2013-06-03 11:47:00,52.2,33.6,29.70,West,281,4.9,8.7,49,0.00,,---,0.00,VWS V14.01,2013-06-03 17:47:00,
2013-06-03 11:52:00,52.2,32.0,29.73,West,271,12.3,15.0,46,0.00,,---,0.00,VWS V14.01,2013-06-03 17:52:00,
2013-06-03 11:57:00,51.8,32.2,29.73,NW,326,11.0,11.0,47,0.00,,---,0.00,VWS V14.01,2013-06-03 17:57:00,
2013-06-03 12:02:00,52.0,32.4,29.73,SW,236,8.7,8.7,47,0.00,,---,0.00,VWS V14.01,2013-06-03 18:02:00,
2013-06-03 12:07:00,51.8,32.2,29.70,NW,326,8.1,8.1,47,0.00,,---,0.00,VWS V14.01,2013-06-03 18:07:00,
2013-06-03 12:12:00,52.2,33.6,29.70,West,276,6.3,13.6,49,0.00,,---,0.00,VWS V14.01,2013-06-03 18:12:00,
2013-06-03 12:17:00,52.5,33.4,29.70,West,269,7.6,8.1,48,0.00,,---,0.00,VWS V14.01,2013-06-03 18:17:00,
2013-06-03 12:22:00,53.2,33.5,29.73,WNW,287,8.3,9.2,47,0.00,,---,0.00,VWS V14.01,2013-06-03 18:22:00,
2013-06-03 12:27:00,53.6,32.8,29.73,WSW,254,9.6,11.0,45,0.00,,---,0.00,VWS V14.01,2013-06-03 18:27:00,
2013-06-03 12:32:00,53.4,33.2,29.73,West,264,8.1,8.1,46,0.00,,---,0.00,VWS V14.01,2013-06-03 18:32:00,
2013-06-03 12:37:00,53.8,33.0,29.73,West,268,7.6,7.6,45,0.00,,---,0.00,VWS V14.01,2013-06-03 18:37:00,
2013-06-03 12:42:00,53.8,33.0,29.73,WSW,243,8.1,9.6,45,0.00,,---,0.00,VWS V14.01,2013-06-03 18:42:00,
2013-06-03 12:47:00,53.4,33.7,29.73,WSW,254,21.5,21.5,47,0.00,,---,0.00,VWS V14.01,2013-06-03 18:47:00,
2013-06-03 12:52:00,53.1,33.9,29.73,West,272,12.8,12.8,48,0.00,,---,0.00,VWS V14.01,2013-06-03 18:52:00,
2013-06-03 12:57:00,53.1,33.9,29.73,WSW,250,5.8,5.8,48,0.00,,---,0.00,VWS V14.01,2013-06-03 18:57:00,
2013-06-03 13:02:00,53.4,33.7,29.73,WSW,239,10.1,10.5,47,0.00,,---,0.00,VWS V14.01,2013-06-03 19:02:00,
2013-06-03 13:07:00,53.6,34.4,29.73,West,264,10.1,10.1,48,0.00,,---,0.00,VWS V14.01,2013-06-03 19:07:00,
2013-06-03 13:12:00,53.2,34.1,29.73,NW,304,8.3,10.5,48,0.00,,---,0.00,VWS V14.01,2013-06-03 19:12:00,
2013-06-03 13:17:00,52.0,33.9,29.73,WNW,293,11.0,11.0,50,0.00,,---,0.00,VWS V14.01,2013-06-03 19:17:00,
2013-06-03 13:22:00,51.1,36.8,29.76,West,276,12.3,12.3,58,0.00,,---,0.00,VWS V14.01,2013-06-03 19:22:00,
2013-06-03 13:27:00,50.2,37.7,29.76,WNW,288,15.4,15.4,62,0.00,,---,0.00,VWS V14.01,2013-06-03 19:27:00,
2013-06-03 13:32:00,48.7,38.7,29.76,WNW,303,13.2,13.2,68,0.00,,---,0.00,VWS V14.01,2013-06-03 19:32:00,
2013-06-03 13:37:00,47.5,39.6,29.76,West,280,11.0,11.4,74,0.00,,---,0.00,VWS V14.01,2013-06-03 19:37:00,
2013-06-03 13:42:00,46.6,38.8,29.76,SW,233,8.1,10.5,74,0.00,,---,0.00,VWS V14.01,2013-06-03 19:42:00,
2013-06-03 13:47:00,46.2,38.1,29.76,WNW,287,8.1,8.1,73,0.00,,---,0.00,VWS V14.01,2013-06-03 19:47:00,
2013-06-03 13:52:00,47.1,40.0,29.73,SW,231,7.6,7.6,76,0.00,,---,0.00,VWS V14.01,2013-06-03 19:52:00,
2013-06-03 13:57:00,48.0,40.8,29.73,South,182,7.6,8.1,76,0.00,,---,0.00,VWS V14.01,2013-06-03 19:57:00,
2013-06-03 14:02:00,48.7,40.5,29.73,WNW,294,8.3,8.3,73,0.00,,---,0.00,VWS V14.01,2013-06-03 20:02:00,
2013-06-03 14:07:00,49.8,40.4,29.76,West,261,7.6,7.6,70,0.00,,---,0.00,VWS V14.01,2013-06-03 20:07:00,
2013-06-03 14:12:00,50.9,41.5,29.76,NW,305,5.4,10.1,70,0.00,,---,0.00,VWS V14.01,2013-06-03 20:12:00,
2013-06-03 14:17:00,52.0,39.4,29.76,West,259,8.1,8.1,62,0.00,,---,0.00,VWS V14.01,2013-06-03 20:17:00,
2013-06-03 14:22:00,52.9,36.2,29.76,West,264,6.3,15.4,53,0.00,,---,0.00,VWS V14.01,2013-06-03 20:22:00,
2013-06-03 14:27:00,53.8,35.6,29.76,WSW,241,8.7,8.7,50,0.00,,---,0.00,VWS V14.01,2013-06-03 20:27:00,
2013-06-03 14:32:00,54.1,34.4,29.76,WNW,286,8.7,11.0,47,0.00,,---,0.00,VWS V14.01,2013-06-03 20:32:00,
2013-06-03 14:37:00,53.6,36.4,29.73,WSW,254,8.3,8.7,52,0.00,,---,0.00,VWS V14.01,2013-06-03 20:37:00,
2013-06-03 14:42:00,53.6,35.9,29.73,SW,236,5.8,8.1,51,0.00,,---,0.00,VWS V14.01,2013-06-03 20:42:00,
2013-06-03 14:47:00,54.0,34.7,29.73,WSW,258,6.3,8.7,48,0.00,,---,0.00,VWS V14.01,2013-06-03 20:47:00,
2013-06-03 14:52:00,53.6,34.4,29.73,WSW,254,8.3,11.0,48,0.00,,---,0.00,VWS V14.01,2013-06-03 20:52:00,
2013-06-03 14:57:00,53.2,34.1,29.73,WNW,286,7.2,8.7,48,0.00,,---,0.00,VWS V14.01,2013-06-03 20:57:00,
2013-06-03 15:02:00,53.1,34.4,29.73,NW,316,12.3,12.3,49,0.00,,---,0.00,VWS V14.01,2013-06-03 21:02:00,
2013-06-03 15:07:00,52.9,34.8,29.76,West,271,5.8,6.3,50,0.00,,---,0.00,VWS V14.01,2013-06-03 21:07:00,
2013-06-03 15:12:00,53.1,36.4,29.76,NW,316,3.1,4.0,53,0.00,,---,0.00,VWS V14.01,2013-06-03 21:12:00,
2013-06-03 15:17:00,53.2,35.1,29.76,West,278,5.8,5.8,50,0.00,,---,0.00,VWS V14.01,2013-06-03 21:17:00,
2013-06-03 15:22:00,53.1,34.9,29.76,WNW,284,11.0,11.9,50,0.00,,---,0.00,VWS V14.01,2013-06-03 21:22:00,
2013-06-03 15:27:00,51.6,35.5,29.76,West,275,6.3,9.2,54,0.00,,---,0.00,VWS V14.01,2013-06-03 21:27:00,
2013-06-03 15:32:00,51.3,36.6,29.76,NW,319,3.6,4.0,57,0.00,,---,0.00,VWS V14.01,2013-06-03 21:32:00,
2013-06-03 15:37:00,51.3,37.0,29.76,West,268,4.0,5.4,58,0.00,,---,0.00,VWS V14.01,2013-06-03 21:37:00,
2013-06-03 15:42:00,51.4,36.3,29.76,NW,306,6.3,6.3,56,0.00,,---,0.00,VWS V14.01,2013-06-03 21:42:00,
2013-06-03 15:47:00,52.0,35.9,29.76,WNW,297,4.9,4.9,54,0.00,,---,0.00,VWS V14.01,2013-06-03 21:47:00,
2013-06-03 15:52:00,53.1,36.4,29.76,West,275,9.2,11.0,53,0.00,,---,0.00,VWS V14.01,2013-06-03 21:52:00,
2013-06-03 15:57:00,53.2,35.6,29.76,West,273,7.6,12.8,51,0.00,,---,0.00,VWS V14.01,2013-06-03 21:57:00,
2013-06-03 16:02:00,53.1,35.4,29.76,West,275,8.3,9.2,51,0.00,,---,0.00,VWS V14.01,2013-06-03 22:02:00,
2013-06-03 16:07:00,53.2,35.1,29.76,NNW,328,8.1,8.1,50,0.00,,---,0.00,VWS V14.01,2013-06-03 22:07:00,
2013-06-03 16:12:00,53.6,35.9,29.76,West,259,5.8,8.7,51,0.00,,---,0.00,VWS V14.01,2013-06-03 22:12:00,
2013-06-03 16:17:00,53.8,35.6,29.76,WSW,241,6.3,7.6,50,0.00,,---,0.00,VWS V14.01,2013-06-03 22:17:00,
2013-06-03 16:22:00,54.0,35.2,29.76,West,267,7.6,10.1,49,0.00,,---,0.00,VWS V14.01,2013-06-03 22:22:00,
2013-06-03 16:27:00,54.1,34.9,29.76,NW,304,11.0,11.0,48,0.00,,---,0.00,VWS V14.01,2013-06-03 22:27:00,
2013-06-03 16:32:00,54.5,34.7,29.76,West,259,4.9,7.6,47,0.00,,---,0.00,VWS V14.01,2013-06-03 22:32:00,
2013-06-03 16:37:00,55.0,35.2,29.76,NW,316,10.1,10.1,47,0.00,,---,0.00,VWS V14.01,2013-06-03 22:37:00,
2013-06-03 16:42:00,55.8,34.8,29.76,WNW,296,6.3,8.1,45,0.00,,---,0.00,VWS V14.01,2013-06-03 22:42:00,
2013-06-03 16:47:00,56.1,35.1,29.76,NW,309,8.3,8.3,45,0.00,,---,0.00,VWS V14.01,2013-06-03 22:47:00,
2013-06-03 16:52:00,56.3,34.1,29.76,NW,312,8.1,8.1,43,0.00,,---,0.00,VWS V14.01,2013-06-03 22:52:00,
2013-06-03 16:57:00,55.8,34.2,29.76,SW,230,3.6,8.1,44,0.00,,---,0.00,VWS V14.01,2013-06-03 22:57:00,
2013-06-03 17:02:00,55.8,33.6,29.76,WSW,258,5.8,7.6,43,0.00,,---,0.00,VWS V14.01,2013-06-03 23:02:00,
2013-06-03 17:07:00,55.8,33.6,29.76,WNW,286,6.3,6.3,43,0.00,,---,0.00,VWS V14.01,2013-06-03 23:07:00,
2013-06-03 17:12:00,55.6,33.5,29.76,NW,312,5.8,8.1,43,0.00,,---,0.00,VWS V14.01,2013-06-03 23:12:00,
2013-06-03 17:17:00,55.6,34.0,29.76,WNW,302,3.6,4.0,44,0.00,,---,0.00,VWS V14.01,2013-06-03 23:17:00,
2013-06-03 17:22:00,55.8,34.2,29.76,West,267,6.3,8.1,44,0.00,,---,0.00,VWS V14.01,2013-06-03 23:22:00,
2013-06-03 17:27:00,55.9,33.8,29.76,WNW,288,8.3,8.3,43,0.00,,---,0.00,VWS V14.01,2013-06-03 23:27:00,
2013-06-03 17:32:00,55.9,33.8,29.76,WNW,291,5.4,7.6,43,0.00,,---,0.00,VWS V14.01,2013-06-03 23:32:00,
2013-06-03 17:37:00,55.9,34.4,29.76,WNW,298,6.7,6.7,44,0.00,,---,0.00,VWS V14.01,2013-06-03 23:37:00,
2013-06-03 17:42:00,56.1,34.0,29.76,West,280,5.8,7.6,43,0.00,,---,0.00,VWS V14.01,2013-06-03 23:42:00,
2013-06-03 17:47:00,56.3,33.5,29.76,WNW,284,6.3,7.2,42,0.00,,---,0.00,VWS V14.01,2013-06-03 23:47:00,
2013-06-03 17:52:00,56.7,33.8,29.76,WSW,237,4.0,6.3,42,0.00,,---,0.00,VWS V14.01,2013-06-03 23:52:00,
2013-06-03 17:57:00,57.0,33.6,29.76,WNW,288,6.3,6.3,41,0.00,,---,0.00,VWS V14.01,2013-06-03 23:57:00,
2013-06-03 18:02:00,57.4,33.3,29.76,West,273,6.3,8.1,40,0.00,,---,0.00,VWS V14.01,2013-06-04 00:02:00,
2013-06-03 18:07:00,57.2,33.7,29.76,WSW,246,5.4,5.4,41,0.00,,---,0.00,VWS V14.01,2013-06-04 00:07:00,
2013-06-03 18:12:00,57.2,32.5,29.76,WSW,258,5.8,10.5,39,0.00,,---,0.00,VWS V14.01,2013-06-04 00:12:00,
2013-06-03 18:17:00,57.2,33.1,29.76,WNW,286,6.7,8.7,40,0.00,,---,0.00,VWS V14.01,2013-06-04 00:17:00,
2013-06-03 18:22:00,57.2,33.1,29.76,WNW,285,10.1,10.1,40,0.00,,---,0.00,VWS V14.01,2013-06-04 00:22:00,
2013-06-03 18:27:00,56.8,32.2,29.76,NW,316,8.3,8.3,39,0.00,,---,0.00,VWS V14.01,2013-06-04 00:27:00,
2013-06-03 18:32:00,56.3,32.9,29.76,WNW,285,13.2,13.2,41,0.00,,---,0.00,VWS V14.01,2013-06-04 00:32:00,
2013-06-03 18:37:00,55.9,33.8,29.76,NW,304,8.3,8.3,43,0.00,,---,0.00,VWS V14.01,2013-06-04 00:37:00,
2013-06-03 18:42:00,55.6,34.0,29.76,WNW,303,8.1,8.3,44,0.00,,---,0.00,VWS V14.01,2013-06-04 00:42:00,
2013-06-03 18:47:00,55.9,33.8,29.76,WSW,244,6.3,6.3,43,0.00,,---,0.00,VWS V14.01,2013-06-04 00:47:00,
2013-06-03 18:52:00,56.1,33.4,29.76,West,264,4.9,6.3,42,0.00,,---,0.00,VWS V14.01,2013-06-04 00:52:00,
2013-06-03 18:57:00,56.7,33.8,29.76,West,268,3.6,6.3,42,0.00,,---,0.00,VWS V14.01,2013-06-04 00:57:00,
2013-06-03 19:02:00,56.5,33.7,29.76,WNW,299,5.8,5.8,42,0.00,,---,0.00,VWS V14.01,2013-06-04 01:02:00,
2013-06-03 19:07:00,56.7,34.4,29.79,SW,226,7.2,7.2,43,0.00,,---,0.00,VWS V14.01,2013-06-04 01:07:00,
2013-06-03 19:12:00,56.8,35.2,29.79,NW,315,4.0,4.0,44,0.00,,---,0.00,VWS V14.01,2013-06-04 01:12:00,
2013-06-03 19:17:00,57.4,35.1,29.79,WSW,243,6.3,8.1,43,0.00,,---,0.00,VWS V14.01,2013-06-04 01:17:00,
2013-06-03 19:22:00,56.3,33.5,29.79,West,267,5.8,5.8,42,0.00,,---,0.00,VWS V14.01,2013-06-04 01:22:00,
2013-06-03 19:27:00,55.6,34.6,29.79,West,266,8.7,8.7,45,0.00,,---,0.00,VWS V14.01,2013-06-04 01:27:00,
2013-06-03 19:32:00,55.0,35.2,29.79,West,279,12.8,12.8,47,0.00,,---,0.00,VWS V14.01,2013-06-04 01:32:00,
2013-06-03 19:37:00,53.6,34.9,29.82,WNW,295,12.3,13.2,49,0.00,,---,0.00,VWS V14.01,2013-06-04 01:37:00,
2013-06-03 19:42:00,51.8,36.6,29.82,WNW,298,7.6,8.3,56,0.00,,---,0.00,VWS V14.01,2013-06-04 01:42:00,
2013-06-03 19:47:00,50.5,36.3,29.82,WNW,300,6.3,6.3,58,0.00,,---,0.00,VWS V14.01,2013-06-04 01:47:00,
2013-06-03 19:52:00,50.0,36.7,29.82,NW,306,3.6,4.5,60,0.00,,---,0.00,VWS V14.01,2013-06-04 01:52:00,
2013-06-03 19:57:00,49.5,36.6,29.82,WNW,296,3.1,5.4,61,0.00,,---,0.00,VWS V14.01,2013-06-04 01:57:00,
2013-06-03 20:02:00,49.3,37.2,29.82,WSW,256,4.5,4.5,63,0.00,,---,0.00,VWS V14.01,2013-06-04 02:02:00,
2013-06-03 20:07:00,49.3,37.6,29.82,NW,304,4.9,4.9,64,0.00,,---,0.00,VWS V14.01,2013-06-04 02:07:00,
2013-06-03 20:12:00,49.3,37.6,29.82,NW,320,2.2,5.4,64,0.00,,---,0.00,VWS V14.01,2013-06-04 02:12:00,
2013-06-03 20:17:00,49.5,38.2,29.82,NNE,31,4.9,4.9,65,0.00,,---,0.00,VWS V14.01,2013-06-04 02:17:00,
2013-06-03 20:22:00,49.5,39.0,29.82,NNE,30,4.9,4.9,67,0.00,,---,0.00,VWS V14.01,2013-06-04 02:22:00,
2013-06-03 20:27:00,48.9,38.5,29.82,NE,52,5.8,5.8,67,0.00,,---,0.00,VWS V14.01,2013-06-04 02:27:00,
2013-06-03 20:32:00,48.2,38.2,29.82,NE,45,6.3,6.3,68,0.00,,---,0.00,VWS V14.01,2013-06-04 02:32:00,
2013-06-03 20:37:00,47.8,38.5,29.82,ENE,58,2.2,5.8,70,0.00,,---,0.00,VWS V14.01,2013-06-04 02:37:00,
2013-06-03 20:42:00,47.7,39.1,29.82,ENE,77,5.4,5.4,72,0.00,,---,0.00,VWS V14.01,2013-06-04 02:42:00,
2013-06-03 20:47:00,47.3,39.1,29.82,ENE,59,2.2,2.2,73,0.00,,---,0.00,VWS V14.01,2013-06-04 02:47:00,
2013-06-03 20:52:00,47.1,39.3,29.82,ESE,107,0.0,2.7,74,0.00,,---,0.00,VWS V14.01,2013-06-04 02:52:00,
2013-06-03 20:57:00,46.8,39.3,29.82,ENE,61,3.1,3.1,75,0.00,,---,0.00,VWS V14.01,2013-06-04 02:57:00,
2013-06-03 21:02:00,46.4,39.3,29.82,SE,141,3.1,5.4,76,0.00,,---,0.00,VWS V14.01,2013-06-04 03:02:00,
2013-06-03 21:07:00,46.2,39.8,29.82,ESE,103,3.6,3.6,78,0.00,,---,0.00,VWS V14.01,2013-06-04 03:07:00,
2013-06-03 21:12:00,46.0,39.6,29.82,ESE,116,2.7,4.9,78,0.00,,---,0.00,VWS V14.01,2013-06-04 03:12:00,
2013-06-03 21:17:00,45.9,39.4,29.82,ENE,65,3.6,4.0,78,0.00,,---,0.00,VWS V14.01,2013-06-04 03:17:00,
2013-06-03 21:22:00,45.9,39.4,29.82,NE,53,2.7,3.1,78,0.00,,---,0.00,VWS V14.01,2013-06-04 03:22:00,
2013-06-03 21:27:00,46.0,39.9,29.82,NE,38,4.5,5.4,79,0.00,,---,0.00,VWS V14.01,2013-06-04 03:27:00,
2013-06-03 21:32:00,46.0,39.9,29.82,NE,54,0.0,0.0,79,0.00,,---,0.00,VWS V14.01,2013-06-04 03:32:00,
2013-06-03 21:37:00,46.2,40.4,29.85,ENE,60,0.0,0.0,80,0.00,,---,0.00,VWS V14.01,2013-06-04 03:37:00,
2013-06-03 21:42:00,46.2,40.4,29.85,NE,54,3.1,6.3,80,0.00,,---,0.00,VWS V14.01,2013-06-04 03:42:00,
2013-06-03 21:47:00,46.0,39.2,29.85,NE,41,3.1,6.3,77,0.00,,---,0.00,VWS V14.01,2013-06-04 03:47:00,
2013-06-03 21:52:00,45.9,38.7,29.85,NNW,341,4.5,4.5,76,0.00,,---,0.00,VWS V14.01,2013-06-04 03:52:00,
2013-06-03 21:57:00,45.3,37.5,29.85,NNW,345,12.3,12.3,74,0.00,,---,0.00,VWS V14.01,2013-06-04 03:57:00,
2013-06-03 22:01:00,44.8,37.0,29.85,WNW,302,2.7,6.3,74,0.00,,---,0.00,VWS V14.01,2013-06-04 04:01:00,
2013-06-03 22:02:00,44.6,37.2,29.85,NE,45,3.1,3.1,75,0.00,,---,0.00,VWS V14.01,2013-06-04 04:02:00,
2013-06-03 22:07:00,44.1,37.3,29.85,NNE,21,2.7,3.1,77,0.00,,---,0.00,VWS V14.01,2013-06-04 04:07:00,
2013-06-03 22:12:00,43.5,37.8,29.85,NE,42,2.2,3.6,80,0.00,,---,0.00,VWS V14.01,2013-06-04 04:12:00,
2013-06-03 22:17:00,43.3,38.5,29.85,NE,42,4.9,8.1,83,0.00,,---,0.00,VWS V14.01,2013-06-04 04:17:00,
2013-06-03 22:22:00,42.8,38.3,29.85,East,97,3.1,3.1,84,0.00,,---,0.00,VWS V14.01,2013-06-04 04:22:00,
2013-06-03 22:27:00,42.3,38.4,29.85,NE,55,4.0,5.8,86,0.00,,---,0.00,VWS V14.01,2013-06-04 04:27:00,
2013-06-03 22:32:00,42.4,38.8,29.85,ENE,61,8.1,8.1,87,0.00,,---,0.00,VWS V14.01,2013-06-04 04:32:00,
2013-06-03 22:37:00,42.3,39.0,29.88,ENE,63,4.9,6.7,88,0.00,,---,0.00,VWS V14.01,2013-06-04 04:37:00,
2013-06-03 22:42:00,42.3,39.5,29.88,ENE,74,2.2,3.1,90,0.00,,---,0.00,VWS V14.01,2013-06-04 04:42:00,
2013-06-03 22:47:00,41.9,39.2,29.88,ENE,65,2.7,2.7,90,0.00,,---,0.00,VWS V14.01,2013-06-04 04:47:00,
2013-06-03 22:52:00,41.9,38.9,29.88,East,93,3.1,4.0,89,0.00,,---,0.00,VWS V14.01,2013-06-04 04:52:00,
2013-06-03 22:57:00,41.7,38.4,29.88,ENE,69,0.0,0.0,88,0.00,,---,0.00,VWS V14.01,2013-06-04 04:57:00,
2013-06-03 23:02:00,41.5,38.3,29.88,NE,52,4.0,4.0,88,0.00,,---,0.00,VWS V14.01,2013-06-04 05:02:00,
2013-06-03 23:07:00,41.5,38.3,29.88,East,88,3.1,3.1,88,0.00,,---,0.00,VWS V14.01,2013-06-04 05:07:00,
2013-06-03 23:12:00,41.4,38.1,29.88,East,93,5.8,6.3,88,0.00,,---,0.00,VWS V14.01,2013-06-04 05:12:00,
2013-06-03 23:17:00,41.2,37.3,29.88,East,96,2.7,3.1,86,0.00,,---,0.00,VWS V14.01,2013-06-04 05:17:00,
2013-06-03 23:22:00,41.2,37.6,29.88,ESE,118,5.4,5.4,87,0.00,,---,0.00,VWS V14.01,2013-06-04 05:22:00,
2013-06-03 23:27:00,41.0,37.4,29.88,SSE,147,5.8,5.8,87,0.00,,---,0.00,VWS V14.01,2013-06-04 05:27:00,
2013-06-03 23:32:00,41.0,37.1,29.88,ESE,122,4.5,4.5,86,0.00,,---,0.00,VWS V14.01,2013-06-04 05:32:00,
2013-06-03 23:37:00,40.6,36.8,29.85,ESE,122,5.4,7.6,86,0.00,,---,0.00,VWS V14.01,2013-06-04 05:37:00,
2013-06-03 23:42:00,40.6,36.5,29.85,ESE,103,4.0,4.0,85,0.00,,---,0.00,VWS V14.01,2013-06-04 05:42:00,
2013-06-03 23:47:00,40.8,36.4,29.85,SE,129,4.5,4.9,84,0.00,,---,0.00,VWS V14.01,2013-06-04 05:47:00,
2013-06-03 23:52:00,41.0,36.2,29.85,ESE,104,2.7,2.7,83,0.00,,---,0.00,VWS V14.01,2013-06-04 05:52:00,
2013-06-03 23:57:00,41.0,36.2,29.85,ESE,107,0.0,0.0,83,0.00,,---,0.00,VWS V14.01,2013-06-04 05:57:00,